Latest tweets that mention www.rmkrmk.com

ريم

@FahdVarun @Mahm6oudA ولوhttps://twitter.com/07_RMK

just now

オド

友達がくれたRMKのマニキュアがゲロかわすぎるhttps://twitter.com/ODOosakana

just now

CZBA WEATHER

LWIS CZBA 151900Z AUTO 20006G12KT 150V250 7SM BKN039 15/04 A2998 RMK ADVISORY ONLY=https://twitter.com/wxczba

just now

غيمه

@meaa_d77 @Mlx80 @_remx0 @faris__p @_1Costa @lll8_1 @vnliii @rtee54 @nof11i @Noufix12 @07_RMK @Piu2i @NaiifCris… https://t.co/BnPOW5lmkBhttps://twitter.com/xliilw

just now

Latest tweets that mention “RMK”

No results